createdAt,value
2018-06-14T00:00:23.108Z,88.70
2018-06-14T00:02:57.621Z,88.60
2018-06-14T00:05:32.237Z,88.70
2018-06-14T00:08:07.233Z,88.80
2018-06-14T00:10:41.707Z,88.80
2018-06-14T00:13:16.232Z,88.80
2018-06-14T00:15:50.861Z,88.80
2018-06-14T00:18:25.410Z,88.80
2018-06-14T00:20:59.993Z,88.90
2018-06-14T00:23:34.880Z,89.30
2018-06-14T00:26:09.553Z,88.70
2018-06-14T00:28:44.944Z,88.60
2018-06-14T00:31:19.835Z,88.50
2018-06-14T00:33:54.609Z,88.50
2018-06-14T00:36:29.114Z,88.40
2018-06-14T00:39:05.649Z,88.50
2018-06-14T00:41:40.665Z,88.40
2018-06-14T00:44:15.114Z,88.40
2018-06-14T00:46:50.004Z,88.50
2018-06-14T00:49:24.311Z,88.40
2018-06-14T00:51:59.494Z,88.20
2018-06-14T00:54:33.599Z,88.00
2018-06-14T00:57:24.797Z,88.00
2018-06-14T00:59:59.138Z,88.00
2018-06-14T01:02:34.053Z,88.10
2018-06-14T01:05:08.760Z,88.50
2018-06-14T01:07:42.949Z,88.20
2018-06-14T01:10:17.811Z,88.20
2018-06-14T01:12:52.434Z,88.30
2018-06-14T01:15:27.164Z,88.30
2018-06-14T01:18:01.735Z,88.90
2018-06-14T01:20:36.479Z,88.40
2018-06-14T01:23:11.109Z,88.40
2018-06-14T01:25:45.690Z,88.30
2018-06-14T01:28:20.267Z,88.30
2018-06-14T01:33:29.581Z,88.20
2018-06-14T01:36:04.334Z,88.30
2018-06-14T01:38:38.887Z,88.20
2018-06-14T01:41:13.527Z,88.20
2018-06-14T01:43:48.025Z,88.30
2018-06-14T01:46:22.981Z,88.40
2018-06-14T01:48:57.276Z,88.40
2018-06-14T01:51:31.940Z,88.20
2018-06-14T01:54:07.035Z,88.20
2018-06-14T01:56:41.514Z,88.10
2018-06-14T01:59:16.210Z,88.00
2018-06-14T02:01:50.574Z,88.10
2018-06-14T02:04:25.704Z,88.20
2018-06-14T02:06:59.882Z,88.20
2018-06-14T02:09:34.490Z,88.10
2018-06-14T02:12:09.063Z,87.90
2018-06-14T02:14:43.670Z,87.70
2018-06-14T02:17:18.589Z,87.50
2018-06-14T02:19:52.893Z,87.40
2018-06-14T02:22:27.547Z,88.10
2018-06-14T02:25:02.182Z,87.30
2018-06-14T02:27:36.874Z,87.30
2018-06-14T02:30:11.383Z,87.20
2018-06-14T02:32:46.079Z,87.20
2018-06-14T02:35:20.977Z,87.20
2018-06-14T02:37:55.536Z,87.00
2018-06-14T02:40:30.552Z,87.00
2018-06-14T02:43:04.818Z,87.00
2018-06-14T02:45:39.432Z,87.00
2018-06-14T02:48:14.999Z,87.00
2018-06-14T02:50:49.836Z,87.20
2018-06-14T02:53:24.444Z,87.30
2018-06-14T02:55:59.310Z,87.40
2018-06-14T02:58:34.000Z,87.50
2018-06-14T03:01:08.806Z,87.60
2018-06-14T03:03:43.841Z,87.80
2018-06-14T03:06:18.036Z,87.90
2018-06-14T03:08:52.601Z,88.00
2018-06-14T03:11:27.480Z,88.00
2018-06-14T03:14:01.962Z,88.10
2018-06-14T03:16:36.654Z,88.10
2018-06-14T03:19:11.307Z,88.20
2018-06-14T03:21:46.729Z,88.10
2018-06-14T03:24:21.651Z,88.20
2018-06-14T03:26:56.290Z,88.20
2018-06-14T03:29:31.289Z,88.20
2018-06-14T03:32:05.723Z,88.10
2018-06-14T03:34:40.312Z,88.00
2018-06-14T03:37:14.740Z,87.90
2018-06-14T03:39:49.594Z,87.90
2018-06-14T03:42:23.904Z,88.00
2018-06-14T03:44:58.443Z,87.90
2018-06-14T03:47:32.977Z,87.80
2018-06-14T03:50:07.598Z,87.90
2018-06-14T03:52:42.375Z,87.90
2018-06-14T03:55:17.018Z,87.90
2018-06-14T03:57:52.030Z,87.90
2018-06-14T04:00:26.462Z,88.00
2018-06-14T04:03:01.141Z,87.80
2018-06-14T04:05:35.728Z,87.80
2018-06-14T04:08:10.267Z,87.80
2018-06-14T04:10:45.078Z,87.90
2018-06-14T04:13:19.783Z,87.80
2018-06-14T04:15:54.387Z,87.70
2018-06-14T04:18:28.950Z,87.80
2018-06-14T04:21:03.445Z,87.70
2018-06-14T04:23:37.922Z,87.50
2018-06-14T04:26:12.847Z,87.60
2018-06-14T04:28:47.092Z,87.40
2018-06-14T04:31:21.929Z,87.90
2018-06-14T04:33:56.645Z,86.90
2018-06-14T04:36:31.329Z,86.50
2018-06-14T04:39:08.976Z,86.10
2018-06-14T04:41:43.612Z,85.90
2018-06-14T04:44:18.329Z,85.90
2018-06-14T04:46:52.915Z,85.90
2018-06-14T04:49:27.642Z,85.70
2018-06-14T04:52:02.258Z,85.80
2018-06-14T04:54:36.944Z,85.00
2018-06-14T04:57:11.718Z,84.60
2018-06-14T04:59:46.425Z,84.60
2018-06-14T05:02:21.019Z,84.30
2018-06-14T05:04:55.688Z,84.50
2018-06-14T05:07:30.218Z,84.50
2018-06-14T05:10:05.114Z,84.40
2018-06-14T05:12:39.848Z,84.00
2018-06-14T05:15:14.503Z,82.20
2018-06-14T05:17:48.975Z,82.10
2018-06-14T05:20:23.716Z,81.20
2018-06-14T05:22:58.546Z,80.40
2018-06-14T05:25:33.027Z,78.20
2018-06-14T05:28:08.275Z,77.80
2018-06-14T05:30:43.110Z,78.10
2018-06-14T05:33:18.119Z,76.30
2018-06-14T05:35:52.726Z,72.30
2018-06-14T05:38:27.214Z,67.60
2018-06-14T05:41:01.852Z,63.60
2018-06-14T05:43:36.543Z,57.10
2018-06-14T05:46:11.230Z,56.10
2018-06-14T05:48:45.769Z,55.60
2018-06-14T05:51:20.474Z,54.50
2018-06-14T05:53:55.056Z,55.50
2018-06-14T05:56:29.859Z,52.60
2018-06-14T05:59:04.472Z,52.00
2018-06-14T06:01:38.994Z,48.60
2018-06-14T06:04:14.312Z,51.80
2018-06-14T06:06:49.292Z,46.90
2018-06-14T06:09:23.829Z,49.30
2018-06-14T06:11:58.546Z,50.70
2018-06-14T06:14:33.148Z,51.80
2018-06-14T06:17:07.963Z,53.10
2018-06-14T06:19:42.631Z,54.80
2018-06-14T06:22:17.330Z,52.70
2018-06-14T06:24:52.017Z,50.00
2018-06-14T06:27:26.830Z,53.20
2018-06-14T06:30:01.666Z,52.20
2018-06-14T06:32:36.791Z,53.40
2018-06-14T06:35:11.158Z,54.10
2018-06-14T06:37:45.885Z,54.90
2018-06-14T06:40:20.658Z,52.80
2018-06-14T06:42:55.604Z,51.20
2018-06-14T06:45:29.860Z,52.50
2018-06-14T06:48:04.673Z,53.70
2018-06-14T06:50:38.974Z,54.40
2018-06-14T06:58:23.161Z,55.20
2018-06-14T07:00:57.557Z,53.70
2018-06-14T07:03:32.257Z,55.00
2018-06-14T07:06:06.801Z,55.30
2018-06-14T07:08:41.597Z,55.20
2018-06-14T07:11:16.373Z,56.20
2018-06-14T07:13:51.315Z,56.80
2018-06-14T07:16:25.724Z,58.30
2018-06-14T07:19:00.792Z,60.30
2018-06-14T07:21:35.457Z,59.70
2018-06-14T07:24:10.514Z,62.40
2018-06-14T07:26:44.771Z,59.20
2018-06-14T07:29:19.324Z,58.10
2018-06-14T07:31:53.830Z,58.40
2018-06-14T07:34:28.430Z,59.20
2018-06-14T07:37:03.082Z,61.90
2018-06-14T07:39:37.679Z,60.20
2018-06-14T07:42:12.205Z,61.50
2018-06-14T07:44:46.898Z,60.30
2018-06-14T07:47:21.667Z,59.40
2018-06-14T07:49:56.010Z,61.70
2018-06-14T07:52:30.710Z,63.90
2018-06-14T07:55:05.489Z,65.80
2018-06-14T07:57:40.361Z,64.40
2018-06-14T08:00:14.778Z,60.00
2018-06-14T08:02:49.406Z,61.30
2018-06-14T08:05:24.061Z,62.60
2018-06-14T08:07:58.717Z,61.90
2018-06-14T08:10:33.287Z,62.30
2018-06-14T08:13:08.238Z,59.00
2018-06-14T08:15:42.868Z,59.10
2018-06-14T08:18:17.366Z,59.90
2018-06-14T08:20:52.012Z,61.30
2018-06-14T08:23:26.715Z,58.60
2018-06-14T08:26:01.369Z,56.50
2018-06-14T08:28:36.074Z,57.10
2018-06-14T08:31:11.269Z,56.40
2018-06-14T08:33:45.482Z,57.70
2018-06-14T08:36:20.189Z,57.90
2018-06-14T08:38:54.756Z,57.70
2018-06-14T08:41:29.786Z,58.30
2018-06-14T08:44:04.402Z,55.80
2018-06-14T08:46:39.090Z,58.30
2018-06-14T08:49:14.041Z,56.40
2018-06-14T08:51:48.295Z,55.90
2018-06-14T08:54:22.918Z,59.40
2018-06-14T08:56:58.092Z,57.70
2018-06-14T08:59:32.303Z,57.80
2018-06-14T09:02:06.928Z,59.40
2018-06-14T09:04:41.448Z,57.50
2018-06-14T09:07:15.979Z,54.00
2018-06-14T09:09:50.421Z,54.60
2018-06-14T09:12:24.993Z,57.70
2018-06-14T09:14:59.626Z,56.10
2018-06-14T09:17:34.331Z,56.40
2018-06-14T09:20:09.126Z,58.10
2018-06-14T09:22:43.794Z,55.40
2018-06-14T09:25:18.555Z,56.90
2018-06-14T09:27:53.321Z,56.00
2018-06-14T09:30:28.070Z,56.10
2018-06-14T09:33:02.530Z,55.40
2018-06-14T09:35:37.125Z,56.70
2018-06-14T09:38:12.538Z,56.40
2018-06-14T09:40:47.058Z,55.50
2018-06-14T09:43:21.742Z,57.50
2018-06-14T09:45:56.526Z,56.90
2018-06-14T09:48:30.924Z,56.20
2018-06-14T09:51:05.577Z,55.50
2018-06-14T09:53:40.224Z,56.40
2018-06-14T09:56:14.894Z,58.70
2018-06-14T09:58:49.563Z,57.70
2018-06-14T10:01:24.308Z,58.80
2018-06-14T10:03:59.185Z,57.50
2018-06-14T10:06:34.233Z,54.50
2018-06-14T10:09:10.715Z,52.20
2018-06-14T10:11:45.390Z,53.60
2018-06-14T10:14:19.988Z,55.40
2018-06-14T10:16:54.818Z,53.80
2018-06-14T10:19:29.487Z,56.00
2018-06-14T10:22:04.217Z,55.30
2018-06-14T10:24:39.000Z,52.20
2018-06-14T10:27:13.870Z,52.20
2018-06-14T10:29:48.606Z,49.70
2018-06-14T10:32:23.977Z,51.10
2018-06-14T10:34:59.017Z,49.50
2018-06-14T10:37:33.454Z,49.70
2018-06-14T10:40:08.248Z,49.90
2018-06-14T10:42:42.813Z,52.10
2018-06-14T10:45:17.478Z,48.60
2018-06-14T10:47:52.280Z,48.90
2018-06-14T10:50:26.949Z,49.70
2018-06-14T10:53:01.472Z,48.30
2018-06-14T10:55:36.187Z,51.70
2018-06-14T10:58:10.880Z,52.30
2018-06-14T11:00:45.502Z,54.70
2018-06-14T11:03:20.192Z,55.50
2018-06-14T11:05:54.872Z,56.00
2018-06-14T11:08:29.598Z,54.80
2018-06-14T11:11:04.304Z,55.60
2018-06-14T11:13:38.926Z,55.30
2018-06-14T11:16:13.938Z,50.60
2018-06-14T11:18:48.322Z,51.60
2018-06-14T11:21:23.000Z,53.40
2018-06-14T11:23:57.682Z,50.90
2018-06-14T11:26:32.195Z,50.50
2018-06-14T11:29:07.010Z,51.80
2018-06-14T11:31:41.563Z,50.70
2018-06-14T11:34:16.208Z,53.10
2018-06-14T11:36:51.678Z,53.70
2018-06-14T11:39:26.567Z,55.40
2018-06-14T11:42:02.523Z,55.20
2018-06-14T11:44:37.177Z,55.50
2018-06-14T11:47:11.832Z,57.30
2018-06-14T11:49:46.360Z,58.00
2018-06-14T11:52:21.402Z,56.60
2018-06-14T11:54:55.771Z,56.40
2018-06-14T11:57:32.196Z,54.20
2018-06-14T12:00:07.055Z,55.40
2018-06-14T12:02:41.683Z,55.70
2018-06-14T12:05:16.306Z,57.20
2018-06-14T12:07:51.903Z,57.60
2018-06-14T12:10:26.854Z,51.80
2018-06-14T12:13:01.149Z,53.00
2018-06-14T12:15:36.053Z,53.40
2018-06-14T12:18:10.494Z,56.10
2018-06-14T12:20:45.471Z,56.10
2018-06-14T12:23:19.731Z,52.00
2018-06-14T12:25:54.606Z,52.30
2018-06-14T12:28:29.260Z,55.30
2018-06-14T12:31:04.139Z,51.80
2018-06-14T12:33:38.737Z,49.40
2018-06-14T12:36:13.555Z,50.60
2018-06-14T12:38:48.282Z,50.20
2018-06-14T12:41:22.811Z,49.90
2018-06-14T12:43:57.618Z,49.90
2018-06-14T12:46:32.259Z,51.00
2018-06-14T12:49:07.001Z,49.40
2018-06-14T12:51:41.756Z,49.40
2018-06-14T12:54:16.352Z,50.20
2018-06-14T12:56:51.882Z,51.40
2018-06-14T12:59:26.770Z,53.00
2018-06-14T13:02:01.387Z,54.00
2018-06-14T13:04:36.014Z,50.70
2018-06-14T13:07:10.706Z,51.40
2018-06-14T13:09:45.334Z,53.60
2018-06-14T13:12:20.597Z,54.60
2018-06-14T13:14:55.192Z,54.90
2018-06-14T13:17:29.421Z,52.00
2018-06-14T13:20:04.174Z,55.00
2018-06-14T13:22:38.802Z,54.20
2018-06-14T13:25:13.285Z,51.80
2018-06-14T13:27:48.066Z,51.90
2018-06-14T13:30:22.615Z,51.50
2018-06-14T13:32:57.268Z,51.80
2018-06-14T13:35:32.037Z,50.80
2018-06-14T13:38:06.719Z,50.00
2018-06-14T13:40:41.352Z,52.50
2018-06-14T13:43:16.121Z,54.80
2018-06-14T13:45:50.602Z,53.20
2018-06-14T13:48:25.267Z,53.30
2018-06-14T13:50:59.956Z,55.40
2018-06-14T13:53:34.581Z,55.60
2018-06-14T13:56:09.284Z,53.50
2018-06-14T13:58:44.061Z,53.60
2018-06-14T14:01:18.660Z,52.30
2018-06-14T14:03:53.318Z,49.00
2018-06-14T14:06:28.660Z,49.00
2018-06-14T14:09:03.182Z,51.20
2018-06-14T14:11:37.399Z,51.70
2018-06-14T14:14:12.213Z,51.10
2018-06-14T14:16:47.362Z,54.10
2018-06-14T14:19:21.572Z,55.10
2018-06-14T14:21:56.306Z,56.40
2018-06-14T14:24:31.068Z,53.40
2018-06-14T14:27:05.708Z,53.60
2018-06-14T14:29:40.346Z,53.70
2018-06-14T14:32:14.942Z,49.40
2018-06-14T14:34:49.687Z,50.10
2018-06-14T14:37:24.362Z,51.80
2018-06-14T14:39:59.196Z,53.90
2018-06-14T14:42:34.477Z,51.90
2018-06-14T14:45:09.092Z,51.70
2018-06-14T14:47:43.664Z,51.80
2018-06-14T14:50:18.116Z,51.80
2018-06-14T14:52:52.624Z,52.60
2018-06-14T14:55:27.785Z,51.80
2018-06-14T14:58:02.114Z,52.70
2018-06-14T15:00:36.590Z,52.20
2018-06-14T15:03:12.052Z,53.50
2018-06-14T15:05:47.316Z,55.20
2018-06-14T15:08:21.500Z,56.00
2018-06-14T15:10:56.158Z,52.50
2018-06-14T15:13:30.770Z,52.20
2018-06-14T15:16:05.366Z,52.20
2018-06-14T15:18:39.872Z,53.90
2018-06-14T15:21:14.517Z,53.20
2018-06-14T15:23:49.199Z,53.20
2018-06-14T15:26:24.069Z,54.10
2018-06-14T15:28:58.228Z,55.00
2018-06-14T15:31:32.812Z,54.00
2018-06-14T15:34:08.334Z,54.60
2018-06-14T15:36:43.032Z,56.30
2018-06-14T15:39:17.554Z,58.00
2018-06-14T15:41:52.463Z,58.50
2018-06-14T15:44:27.062Z,57.40
2018-06-14T15:47:02.456Z,52.50
2018-06-14T15:49:37.328Z,52.60
2018-06-14T15:52:11.889Z,53.70
2018-06-14T15:55:03.497Z,54.20
2018-06-14T15:57:37.702Z,55.40
2018-06-14T16:00:12.385Z,56.30
2018-06-14T16:02:47.087Z,57.10
2018-06-14T16:05:22.023Z,58.30
2018-06-14T16:07:56.416Z,58.30
2018-06-14T16:10:30.963Z,58.10
2018-06-14T16:13:05.586Z,58.80
2018-06-14T16:15:40.150Z,58.00
2018-06-14T16:18:15.152Z,59.00
2018-06-14T16:20:49.826Z,59.70
2018-06-14T16:23:24.779Z,59.80
2018-06-14T16:25:59.824Z,58.70
2018-06-14T16:28:34.367Z,57.00
2018-06-14T16:31:09.205Z,58.30
2018-06-14T16:33:43.886Z,59.40
2018-06-14T16:36:18.429Z,60.20
2018-06-14T16:38:52.952Z,58.40
2018-06-14T16:41:28.030Z,58.50
2018-06-14T16:44:02.335Z,56.10
2018-06-14T16:46:36.844Z,56.70
2018-06-14T16:49:11.678Z,56.00
2018-06-14T16:51:46.349Z,56.60
2018-06-14T16:54:20.943Z,56.30
2018-06-14T16:56:56.563Z,55.60
2018-06-14T16:59:31.260Z,55.80
2018-06-14T17:02:05.992Z,56.00
2018-06-14T17:04:40.748Z,56.40
2018-06-14T17:07:15.464Z,56.50
2018-06-14T17:09:50.022Z,55.50
2018-06-14T17:12:24.612Z,55.10
2018-06-14T17:14:59.057Z,55.90
2018-06-14T17:17:33.638Z,55.10
2018-06-14T17:20:08.354Z,55.60
2018-06-14T17:22:42.836Z,55.60
2018-06-14T17:25:17.851Z,55.60
2018-06-14T17:27:52.194Z,56.10
2018-06-14T17:30:26.999Z,56.20
2018-06-14T17:33:02.090Z,56.50
2018-06-14T17:35:37.050Z,56.80
2018-06-14T17:38:11.620Z,56.60
2018-06-14T17:40:46.399Z,56.40
2018-06-14T17:43:21.117Z,56.90
2018-06-14T17:45:55.751Z,55.50
2018-06-14T17:48:30.250Z,55.90
2018-06-14T17:51:05.778Z,56.40
2018-06-14T17:53:40.927Z,56.90
2018-06-14T17:56:15.685Z,56.10
2018-06-14T17:58:50.145Z,56.10
2018-06-14T18:01:24.819Z,56.10
2018-06-14T18:03:59.389Z,56.50
2018-06-14T18:06:34.014Z,56.90
2018-06-14T18:09:09.501Z,56.80
2018-06-14T18:11:44.952Z,56.90
2018-06-14T18:14:19.990Z,56.70
2018-06-14T18:16:54.693Z,57.30
2018-06-14T18:19:29.367Z,57.40
2018-06-14T18:22:03.987Z,57.20
2018-06-14T18:24:38.844Z,57.30
2018-06-14T18:27:13.608Z,58.00
2018-06-14T18:29:48.357Z,57.10
2018-06-14T18:32:23.451Z,57.50
2018-06-14T18:34:58.827Z,59.00
2018-06-14T18:37:34.640Z,59.10
2018-06-14T18:40:08.852Z,59.00
2018-06-14T18:42:44.755Z,57.90
2018-06-14T18:45:19.952Z,58.80
2018-06-14T18:47:55.349Z,59.40
2018-06-14T18:50:30.942Z,59.00
2018-06-14T18:53:05.953Z,60.00
2018-06-14T18:55:42.047Z,60.90
2018-06-14T18:58:17.234Z,60.00
2018-06-14T19:00:53.279Z,61.40
2018-06-14T19:03:28.902Z,60.20
2018-06-14T19:06:04.227Z,60.00
2018-06-14T19:08:39.106Z,60.50
2018-06-14T19:11:15.146Z,61.40
2018-06-14T19:13:50.358Z,61.40
2018-06-14T19:16:26.231Z,61.90
2018-06-14T19:19:01.868Z,62.20
2018-06-14T19:21:37.121Z,61.70
2018-06-14T19:24:11.752Z,63.00
2018-06-14T19:26:46.893Z,63.10
2018-06-14T19:29:22.143Z,63.90
2018-06-14T19:31:57.287Z,64.30
2018-06-14T19:34:33.050Z,63.40
2018-06-14T19:37:08.108Z,64.00
2018-06-14T19:39:43.412Z,64.30
2018-06-14T19:42:18.550Z,64.80
2018-06-14T19:44:54.581Z,64.80
2018-06-14T19:47:30.660Z,65.00
2018-06-14T19:50:06.196Z,66.20
2018-06-14T19:52:42.317Z,66.20
2018-06-14T19:55:18.417Z,66.10
2018-06-14T19:57:53.771Z,66.40
2018-06-14T20:00:29.824Z,66.70
2018-06-14T20:03:05.689Z,67.20
2018-06-14T20:05:41.234Z,67.50
2018-06-14T20:08:18.950Z,68.20
2018-06-14T20:10:54.422Z,68.50
2018-06-14T20:13:31.117Z,68.40
2018-06-14T20:16:06.160Z,68.30
2018-06-14T20:18:41.265Z,68.30
2018-06-14T20:21:16.910Z,68.20
2018-06-14T20:23:52.530Z,68.30
2018-06-14T20:26:27.715Z,68.50
2018-06-14T20:29:02.459Z,68.80
2018-06-14T20:31:37.579Z,69.20
2018-06-14T20:34:12.316Z,69.50
2018-06-14T20:36:47.335Z,69.70
2018-06-14T20:39:21.797Z,69.70
2018-06-14T20:41:56.752Z,69.90
2018-06-14T20:44:31.758Z,70.50
2018-06-14T20:47:07.917Z,70.80
2018-06-14T20:49:42.630Z,71.70
2018-06-14T20:52:17.114Z,71.90
2018-06-14T20:54:52.881Z,72.10
2018-06-14T20:57:27.329Z,72.60
2018-06-14T21:00:01.977Z,73.00
2018-06-14T21:02:36.648Z,73.20
2018-06-14T21:05:11.319Z,73.40
2018-06-14T21:07:46.109Z,73.70
2018-06-14T21:10:21.142Z,73.90
2018-06-14T21:12:55.613Z,73.80
2018-06-14T21:15:30.514Z,74.10
2018-06-14T21:18:06.106Z,74.40
2018-06-14T21:23:15.653Z,74.70
2018-06-14T21:25:49.961Z,74.80
2018-06-14T21:28:24.658Z,74.80
2018-06-14T21:30:59.364Z,74.80
2018-06-14T21:33:34.047Z,74.90
2018-06-14T21:36:08.603Z,75.00
2018-06-14T21:38:43.492Z,75.20
2018-06-14T21:41:18.033Z,75.10
2018-06-14T21:43:53.310Z,75.80
2018-06-14T21:46:27.674Z,75.30
2018-06-14T21:49:02.190Z,75.30
2018-06-14T21:51:36.898Z,75.40
2018-06-14T21:54:11.527Z,75.50
2018-06-14T21:56:46.052Z,75.80
2018-06-14T21:59:20.614Z,76.10
2018-06-14T22:01:55.214Z,76.20
2018-06-14T22:04:30.918Z,76.50
2018-06-14T22:07:05.593Z,76.70
2018-06-14T22:09:40.306Z,77.00
2018-06-14T22:12:14.949Z,77.10
2018-06-14T22:14:49.656Z,77.50
2018-06-14T22:17:24.311Z,77.60
2018-06-14T22:19:58.834Z,77.80
2018-06-14T22:22:33.880Z,78.10
2018-06-14T22:25:08.950Z,78.50
2018-06-14T22:27:44.034Z,78.50
2018-06-14T22:30:18.965Z,78.40
2018-06-14T22:33:10.394Z,78.70
2018-06-14T22:35:44.971Z,78.90
2018-06-14T22:38:19.936Z,79.20
2018-06-14T22:40:54.356Z,79.30
2018-06-14T22:43:29.000Z,79.40
2018-06-14T22:46:03.845Z,79.50
2018-06-14T22:48:38.444Z,79.60
2018-06-14T22:51:17.994Z,79.70
2018-06-14T22:53:52.856Z,79.90
2018-06-14T22:56:27.381Z,80.10
2018-06-14T22:59:02.256Z,80.20
2018-06-14T23:01:45.280Z,80.30
2018-06-14T23:04:22.130Z,79.70
2018-06-14T23:06:56.754Z,80.40
2018-06-14T23:10:46.054Z,80.50
2018-06-14T23:13:20.863Z,80.70
2018-06-14T23:15:55.441Z,81.40
2018-06-14T23:18:30.154Z,80.80
2018-06-14T23:21:04.833Z,80.90
2018-06-14T23:23:39.475Z,81.20
2018-06-14T23:26:14.184Z,81.30
2018-06-14T23:28:49.133Z,81.40
2018-06-14T23:31:23.440Z,81.60
2018-06-14T23:33:58.685Z,81.70
2018-06-14T23:36:33.728Z,81.80
2018-06-14T23:39:08.600Z,81.60
2018-06-14T23:41:43.976Z,81.60
2018-06-14T23:44:19.023Z,81.70
2018-06-14T23:46:53.716Z,81.70
2018-06-14T23:49:27.863Z,81.90
2018-06-14T23:52:02.470Z,82.10
2018-06-14T23:54:37.552Z,82.20
2018-06-14T23:57:11.821Z,82.40
2018-06-14T23:59:46.584Z,82.50
